sensor_id;sensor_type;location;lat;lon;timestamp;temperature;humidity
32394;DHT22;18853;45.426;9.206;2022-08-21T00:01:42;31.40;38.00
32394;DHT22;18853;45.426;9.206;2022-08-21T00:04:08;31.40;38.00
32394;DHT22;18853;45.426;9.206;2022-08-21T00:06:34;31.40;38.00
32394;DHT22;18853;45.426;9.206;2022-08-21T00:09:01;31.40;37.90
32394;DHT22;18853;45.426;9.206;2022-08-21T00:11:27;31.30;37.70
32394;DHT22;18853;45.426;9.206;2022-08-21T00:13:54;31.30;37.70
32394;DHT22;18853;45.426;9.206;2022-08-21T00:16:19;31.30;37.80
32394;DHT22;18853;45.426;9.206;2022-08-21T00:18:45;31.30;37.90
32394;DHT22;18853;45.426;9.206;2022-08-21T00:21:11;31.30;38.00
32394;DHT22;18853;45.426;9.206;2022-08-21T00:23:37;31.30;38.90
32394;DHT22;18853;45.426;9.206;2022-08-21T00:26:02;31.30;38.30
32394;DHT22;18853;45.426;9.206;2022-08-21T00:28:28;31.20;38.40
32394;DHT22;18853;45.426;9.206;2022-08-21T00:30:54;31.20;38.50
32394;DHT22;18853;45.426;9.206;2022-08-21T00:33:19;31.20;38.90
32394;DHT22;18853;45.426;9.206;2022-08-21T00:35:45;31.10;39.00
32394;DHT22;18853;45.426;9.206;2022-08-21T00:38:11;31.10;39.00
32394;DHT22;18853;45.426;9.206;2022-08-21T00:43:03;31.00;39.30
32394;DHT22;18853;45.426;9.206;2022-08-21T00:45:29;31.00;39.50
32394;DHT22;18853;45.426;9.206;2022-08-21T00:47:55;30.90;39.40
32394;DHT22;18853;45.426;9.206;2022-08-21T00:50:20;30.90;39.60
32394;DHT22;18853;45.426;9.206;2022-08-21T00:52:46;30.80;39.50
32394;DHT22;18853;45.426;9.206;2022-08-21T00:55:12;30.80;40.00
32394;DHT22;18853;45.426;9.206;2022-08-21T00:57:40;30.70;40.30
32394;DHT22;18853;45.426;9.206;2022-08-21T01:00:08;30.70;40.10
32394;DHT22;18853;45.426;9.206;2022-08-21T01:02:35;30.60;40.20
32394;DHT22;18853;45.426;9.206;2022-08-21T01:05:00;30.60;40.20
32394;DHT22;18853;45.426;9.206;2022-08-21T01:07:26;30.50;40.20
32394;DHT22;18853;45.426;9.206;2022-08-21T01:09:51;30.50;40.30
32394;DHT22;18853;45.426;9.206;2022-08-21T01:12:17;30.50;39.60
32394;DHT22;18853;45.426;9.206;2022-08-21T01:14:43;30.40;40.00
32394;DHT22;18853;45.426;9.206;2022-08-21T01:17:10;30.40;40.50
32394;DHT22;18853;45.426;9.206;2022-08-21T01:19:36;30.40;40.40
32394;DHT22;18853;45.426;9.206;2022-08-21T01:22:02;30.40;40.60
32394;DHT22;18853;45.426;9.206;2022-08-21T01:24:28;30.30;40.70
32394;DHT22;18853;45.426;9.206;2022-08-21T01:26:53;30.30;40.80
32394;DHT22;18853;45.426;9.206;2022-08-21T01:31:50;30.30;41.40
32394;DHT22;18853;45.426;9.206;2022-08-21T01:34:16;30.20;41.50
32394;DHT22;18853;45.426;9.206;2022-08-21T01:36:43;30.10;41.70
32394;DHT22;18853;45.426;9.206;2022-08-21T01:39:08;30.10;41.90
32394;DHT22;18853;45.426;9.206;2022-08-21T01:41:34;30.00;42.10
32394;DHT22;18853;45.426;9.206;2022-08-21T01:44:00;30.00;42.10
32394;DHT22;18853;45.426;9.206;2022-08-21T01:46:25;29.90;42.30
32394;DHT22;18853;45.426;9.206;2022-08-21T01:48:51;29.90;42.40
32394;DHT22;18853;45.426;9.206;2022-08-21T01:51:16;29.90;42.60
32394;DHT22;18853;45.426;9.206;2022-08-21T01:53:42;29.80;42.50
32394;DHT22;18853;45.426;9.206;2022-08-21T01:56:09;29.90;42.60
32394;DHT22;18853;45.426;9.206;2022-08-21T01:58:35;29.80;42.60
32394;DHT22;18853;45.426;9.206;2022-08-21T02:01:01;29.80;42.50
32394;DHT22;18853;45.426;9.206;2022-08-21T02:03:27;29.90;42.40
32394;DHT22;18853;45.426;9.206;2022-08-21T02:05:53;29.90;42.50
32394;DHT22;18853;45.426;9.206;2022-08-21T02:08:19;29.80;42.30
32394;DHT22;18853;45.426;9.206;2022-08-21T02:10:49;29.90;41.50
32394;DHT22;18853;45.426;9.206;2022-08-21T02:13:15;29.80;41.70
32394;DHT22;18853;45.426;9.206;2022-08-21T02:15:40;29.80;41.70
32394;DHT22;18853;45.426;9.206;2022-08-21T02:18:06;29.90;41.70
32394;DHT22;18853;45.426;9.206;2022-08-21T02:20:33;29.80;41.60
32394;DHT22;18853;45.426;9.206;2022-08-21T02:22:59;29.80;41.80
32394;DHT22;18853;45.426;9.206;2022-08-21T02:25:25;29.80;41.80
32394;DHT22;18853;45.426;9.206;2022-08-21T02:27:52;29.80;41.40
32394;DHT22;18853;45.426;9.206;2022-08-21T02:30:19;29.70;40.90
32394;DHT22;18853;45.426;9.206;2022-08-21T02:32:44;29.80;40.90
32394;DHT22;18853;45.426;9.206;2022-08-21T02:35:10;29.80;41.10
32394;DHT22;18853;45.426;9.206;2022-08-21T02:37:43;29.70;41.40
32394;DHT22;18853;45.426;9.206;2022-08-21T02:40:09;29.60;41.40
32394;DHT22;18853;45.426;9.206;2022-08-21T02:42:36;29.60;41.90
32394;DHT22;18853;45.426;9.206;2022-08-21T02:45:02;29.60;42.30
32394;DHT22;18853;45.426;9.206;2022-08-21T02:47:28;29.50;42.40
32394;DHT22;18853;45.426;9.206;2022-08-21T02:49:53;29.50;42.90
32394;DHT22;18853;45.426;9.206;2022-08-21T02:52:19;29.50;42.20
32394;DHT22;18853;45.426;9.206;2022-08-21T02:54:44;29.40;42.60
32394;DHT22;18853;45.426;9.206;2022-08-21T02:57:10;29.40;42.70
32394;DHT22;18853;45.426;9.206;2022-08-21T02:59:35;29.40;42.70
32394;DHT22;18853;45.426;9.206;2022-08-21T03:02:01;29.30;42.80
32394;DHT22;18853;45.426;9.206;2022-08-21T03:04:27;29.30;43.00
32394;DHT22;18853;45.426;9.206;2022-08-21T03:06:52;29.20;43.30
32394;DHT22;18853;45.426;9.206;2022-08-21T03:09:18;29.20;43.70
32394;DHT22;18853;45.426;9.206;2022-08-21T03:11:43;29.10;43.90
32394;DHT22;18853;45.426;9.206;2022-08-21T03:14:09;29.10;44.10
32394;DHT22;18853;45.426;9.206;2022-08-21T03:16:34;29.10;44.30
32394;DHT22;18853;45.426;9.206;2022-08-21T03:19:00;29.00;44.20
32394;DHT22;18853;45.426;9.206;2022-08-21T03:21:26;29.00;44.60
32394;DHT22;18853;45.426;9.206;2022-08-21T03:23:51;28.90;44.90
32394;DHT22;18853;45.426;9.206;2022-08-21T03:26:19;28.80;45.20
32394;DHT22;18853;45.426;9.206;2022-08-21T03:28:44;28.80;45.20
32394;DHT22;18853;45.426;9.206;2022-08-21T03:31:10;28.80;45.50
32394;DHT22;18853;45.426;9.206;2022-08-21T03:33:36;28.70;45.20
32394;DHT22;18853;45.426;9.206;2022-08-21T03:36:04;28.70;45.30
32394;DHT22;18853;45.426;9.206;2022-08-21T03:38:31;28.70;45.10
32394;DHT22;18853;45.426;9.206;2022-08-21T03:40:57;28.70;45.60
32394;DHT22;18853;45.426;9.206;2022-08-21T03:43:22;28.70;45.70
32394;DHT22;18853;45.426;9.206;2022-08-21T03:45:48;28.60;45.70
32394;DHT22;18853;45.426;9.206;2022-08-21T03:48:13;28.60;45.70
32394;DHT22;18853;45.426;9.206;2022-08-21T03:50:40;28.50;45.90
32394;DHT22;18853;45.426;9.206;2022-08-21T03:53:10;28.50;46.70
32394;DHT22;18853;45.426;9.206;2022-08-21T03:55:35;28.50;46.20
32394;DHT22;18853;45.426;9.206;2022-08-21T03:58:01;28.50;46.20
32394;DHT22;18853;45.426;9.206;2022-08-21T04:00:27;28.50;46.10
32394;DHT22;18853;45.426;9.206;2022-08-21T04:02:52;28.50;46.10
32394;DHT22;18853;45.426;9.206;2022-08-21T04:05:18;28.50;46.00
32394;DHT22;18853;45.426;9.206;2022-08-21T04:08:02;28.50;46.00
32394;DHT22;18853;45.426;9.206;2022-08-21T04:10:28;28.50;46.10
32394;DHT22;18853;45.426;9.206;2022-08-21T04:12:54;28.50;46.10
32394;DHT22;18853;45.426;9.206;2022-08-21T04:15:21;28.50;46.00
32394;DHT22;18853;45.426;9.206;2022-08-21T04:17:47;28.50;46.00
32394;DHT22;18853;45.426;9.206;2022-08-21T04:20:13;28.50;46.10
32394;DHT22;18853;45.426;9.206;2022-08-21T04:22:39;28.50;46.20
32394;DHT22;18853;45.426;9.206;2022-08-21T04:25:05;28.50;46.00
32394;DHT22;18853;45.426;9.206;2022-08-21T04:27:30;28.40;45.90
32394;DHT22;18853;45.426;9.206;2022-08-21T04:29:56;28.40;46.10
32394;DHT22;18853;45.426;9.206;2022-08-21T04:32:24;28.30;46.50
32394;DHT22;18853;45.426;9.206;2022-08-21T04:34:56;28.30;46.50
32394;DHT22;18853;45.426;9.206;2022-08-21T04:37:22;28.30;46.40
32394;DHT22;18853;45.426;9.206;2022-08-21T04:39:48;28.30;46.50
32394;DHT22;18853;45.426;9.206;2022-08-21T04:42:13;28.20;46.50
32394;DHT22;18853;45.426;9.206;2022-08-21T04:44:39;28.20;46.50
32394;DHT22;18853;45.426;9.206;2022-08-21T04:47:06;28.20;46.70
32394;DHT22;18853;45.426;9.206;2022-08-21T04:49:32;28.20;46.90
32394;DHT22;18853;45.426;9.206;2022-08-21T04:51:58;28.20;46.70
32394;DHT22;18853;45.426;9.206;2022-08-21T04:54:23;28.20;46.90
32394;DHT22;18853;45.426;9.206;2022-08-21T04:56:50;28.20;46.90
32394;DHT22;18853;45.426;9.206;2022-08-21T04:59:21;28.20;47.00
32394;DHT22;18853;45.426;9.206;2022-08-21T05:01:48;28.20;47.00
32394;DHT22;18853;45.426;9.206;2022-08-21T05:04:15;28.20;47.10
32394;DHT22;18853;45.426;9.206;2022-08-21T05:06:42;28.10;47.40
32394;DHT22;18853;45.426;9.206;2022-08-21T05:09:09;28.10;47.40
32394;DHT22;18853;45.426;9.206;2022-08-21T05:11:37;28.10;47.60
32394;DHT22;18853;45.426;9.206;2022-08-21T05:14:03;28.10;47.40
32394;DHT22;18853;45.426;9.206;2022-08-21T05:16:28;28.10;47.40
32394;DHT22;18853;45.426;9.206;2022-08-21T05:18:54;28.10;47.50
32394;DHT22;18853;45.426;9.206;2022-08-21T05:21:19;28.20;47.60
32394;DHT22;18853;45.426;9.206;2022-08-21T05:23:46;28.10;47.50
32394;DHT22;18853;45.426;9.206;2022-08-21T05:26:11;28.20;47.70
32394;DHT22;18853;45.426;9.206;2022-08-21T05:28:38;28.10;47.70
32394;DHT22;18853;45.426;9.206;2022-08-21T05:31:03;28.20;47.60
32394;DHT22;18853;45.426;9.206;2022-08-21T05:33:29;28.20;47.40
32394;DHT22;18853;45.426;9.206;2022-08-21T05:35:55;28.20;47.60
32394;DHT22;18853;45.426;9.206;2022-08-21T05:38:24;28.20;47.90
32394;DHT22;18853;45.426;9.206;2022-08-21T05:40:50;28.20;47.90
32394;DHT22;18853;45.426;9.206;2022-08-21T05:43:16;28.20;47.80
32394;DHT22;18853;45.426;9.206;2022-08-21T05:45:42;28.20;47.90
32394;DHT22;18853;45.426;9.206;2022-08-21T05:48:13;28.30;47.90
32394;DHT22;18853;45.426;9.206;2022-08-21T05:50:40;28.20;47.70
32394;DHT22;18853;45.426;9.206;2022-08-21T05:53:06;28.20;48.00
32394;DHT22;18853;45.426;9.206;2022-08-21T05:55:32;28.20;48.20
32394;DHT22;18853;45.426;9.206;2022-08-21T05:57:58;28.30;48.50
32394;DHT22;18853;45.426;9.206;2022-08-21T06:00:24;28.30;48.60
32394;DHT22;18853;45.426;9.206;2022-08-21T06:02:49;28.30;48.20
32394;DHT22;18853;45.426;9.206;2022-08-21T06:05:16;28.30;48.20
32394;DHT22;18853;45.426;9.206;2022-08-21T06:07:41;28.30;48.00
32394;DHT22;18853;45.426;9.206;2022-08-21T06:10:07;28.30;48.10
32394;DHT22;18853;45.426;9.206;2022-08-21T06:12:33;28.30;48.60
32394;DHT22;18853;45.426;9.206;2022-08-21T06:14:58;28.30;48.30
32394;DHT22;18853;45.426;9.206;2022-08-21T06:17:24;28.40;48.20
32394;DHT22;18853;45.426;9.206;2022-08-21T06:19:52;28.40;48.30
32394;DHT22;18853;45.426;9.206;2022-08-21T06:22:19;28.40;48.40
32394;DHT22;18853;45.426;9.206;2022-08-21T06:24:44;28.40;48.20
32394;DHT22;18853;45.426;9.206;2022-08-21T06:27:10;28.40;48.20
32394;DHT22;18853;45.426;9.206;2022-08-21T06:29:35;28.40;47.40
32394;DHT22;18853;45.426;9.206;2022-08-21T06:32:01;28.40;46.90
32394;DHT22;18853;45.426;9.206;2022-08-21T06:34:27;28.50;46.70
32394;DHT22;18853;45.426;9.206;2022-08-21T06:36:53;28.50;46.80
32394;DHT22;18853;45.426;9.206;2022-08-21T06:39:18;28.50;46.90
32394;DHT22;18853;45.426;9.206;2022-08-21T06:41:44;28.50;46.70
32394;DHT22;18853;45.426;9.206;2022-08-21T06:44:10;28.50;47.30
32394;DHT22;18853;45.426;9.206;2022-08-21T06:46:36;28.60;46.60
32394;DHT22;18853;45.426;9.206;2022-08-21T06:49:01;28.60;46.70
32394;DHT22;18853;45.426;9.206;2022-08-21T06:51:27;28.60;46.60
32394;DHT22;18853;45.426;9.206;2022-08-21T06:53:53;28.60;47.00
32394;DHT22;18853;45.426;9.206;2022-08-21T06:56:18;28.60;46.40
32394;DHT22;18853;45.426;9.206;2022-08-21T06:58:44;28.60;46.50
32394;DHT22;18853;45.426;9.206;2022-08-21T07:01:10;28.70;46.10
32394;DHT22;18853;45.426;9.206;2022-08-21T07:03:37;28.70;46.00
32394;DHT22;18853;45.426;9.206;2022-08-21T07:06:06;28.70;45.80
32394;DHT22;18853;45.426;9.206;2022-08-21T07:08:33;28.80;45.60
32394;DHT22;18853;45.426;9.206;2022-08-21T07:10:59;28.80;44.60
32394;DHT22;18853;45.426;9.206;2022-08-21T07:13:25;28.80;44.30
32394;DHT22;18853;45.426;9.206;2022-08-21T07:15:50;28.80;44.10
32394;DHT22;18853;45.426;9.206;2022-08-21T07:18:16;28.80;44.00
32394;DHT22;18853;45.426;9.206;2022-08-21T07:20:41;28.90;44.10
32394;DHT22;18853;45.426;9.206;2022-08-21T07:23:08;28.90;44.20
32394;DHT22;18853;45.426;9.206;2022-08-21T07:25:34;28.90;44.20
32394;DHT22;18853;45.426;9.206;2022-08-21T07:28:00;28.90;44.50
32394;DHT22;18853;45.426;9.206;2022-08-21T07:30:25;29.00;44.40
32394;DHT22;18853;45.426;9.206;2022-08-21T07:32:51;28.90;43.80
32394;DHT22;18853;45.426;9.206;2022-08-21T07:35:17;28.90;43.50
32394;DHT22;18853;45.426;9.206;2022-08-21T07:37:58;28.90;44.00
32394;DHT22;18853;45.426;9.206;2022-08-21T07:40:23;28.90;44.50
32394;DHT22;18853;45.426;9.206;2022-08-21T07:42:49;29.00;44.70
32394;DHT22;18853;45.426;9.206;2022-08-21T07:45:18;29.00;44.60
32394;DHT22;18853;45.426;9.206;2022-08-21T07:47:43;29.00;44.70
32394;DHT22;18853;45.426;9.206;2022-08-21T07:50:10;29.00;44.90
32394;DHT22;18853;45.426;9.206;2022-08-21T07:52:36;29.10;44.80
32394;DHT22;18853;45.426;9.206;2022-08-21T07:55:02;29.10;44.70
32394;DHT22;18853;45.426;9.206;2022-08-21T07:57:27;29.20;44.80
32394;DHT22;18853;45.426;9.206;2022-08-21T07:59:54;29.20;45.40
32394;DHT22;18853;45.426;9.206;2022-08-21T08:02:23;29.20;44.70
32394;DHT22;18853;45.426;9.206;2022-08-21T08:04:48;29.30;44.60
32394;DHT22;18853;45.426;9.206;2022-08-21T08:07:14;29.20;44.10
32394;DHT22;18853;45.426;9.206;2022-08-21T08:09:40;29.20;43.80
32394;DHT22;18853;45.426;9.206;2022-08-21T08:12:05;29.20;43.30
32394;DHT22;18853;45.426;9.206;2022-08-21T08:14:31;29.20;43.10
32394;DHT22;18853;45.426;9.206;2022-08-21T08:16:57;29.20;43.10
32394;DHT22;18853;45.426;9.206;2022-08-21T08:19:22;29.30;43.30
32394;DHT22;18853;45.426;9.206;2022-08-21T08:21:48;29.30;43.40
32394;DHT22;18853;45.426;9.206;2022-08-21T08:24:14;29.30;43.30
32394;DHT22;18853;45.426;9.206;2022-08-21T08:26:39;29.40;43.10
32394;DHT22;18853;45.426;9.206;2022-08-21T08:29:05;29.40;43.10
32394;DHT22;18853;45.426;9.206;2022-08-21T08:31:30;29.40;43.20
32394;DHT22;18853;45.426;9.206;2022-08-21T08:33:56;29.50;42.80
32394;DHT22;18853;45.426;9.206;2022-08-21T08:36:21;29.50;41.50
32394;DHT22;18853;45.426;9.206;2022-08-21T08:38:56;29.50;40.70
32394;DHT22;18853;45.426;9.206;2022-08-21T08:41:21;29.50;40.70
32394;DHT22;18853;45.426;9.206;2022-08-21T08:43:54;29.50;41.00
32394;DHT22;18853;45.426;9.206;2022-08-21T08:46:35;29.50;40.70
32394;DHT22;18853;45.426;9.206;2022-08-21T08:51:54;29.60;40.20
32394;DHT22;18853;45.426;9.206;2022-08-21T08:54:39;29.60;39.70
32394;DHT22;18853;45.426;9.206;2022-08-21T08:57:10;29.60;40.00
32394;DHT22;18853;45.426;9.206;2022-08-21T08:59:46;29.70;40.20
32394;DHT22;18853;45.426;9.206;2022-08-21T09:02:13;29.70;40.00
32394;DHT22;18853;45.426;9.206;2022-08-21T09:04:39;29.60;40.00
32394;DHT22;18853;45.426;9.206;2022-08-21T09:10:00;29.80;40.70
32394;DHT22;18853;45.426;9.206;2022-08-21T09:15:03;29.70;40.60
32394;DHT22;18853;45.426;9.206;2022-08-21T09:17:37;29.70;40.60
32394;DHT22;18853;45.426;9.206;2022-08-21T09:22:35;29.90;41.10
32394;DHT22;18853;45.426;9.206;2022-08-21T09:27:36;29.90;40.90
32394;DHT22;18853;45.426;9.206;2022-08-21T09:30:03;29.90;41.10
32394;DHT22;18853;45.426;9.206;2022-08-21T09:32:30;30.00;41.40
32394;DHT22;18853;45.426;9.206;2022-08-21T09:37:22;30.00;40.90
32394;DHT22;18853;45.426;9.206;2022-08-21T09:39:48;30.00;41.20
32394;DHT22;18853;45.426;9.206;2022-08-21T09:42:20;30.00;41.70
32394;DHT22;18853;45.426;9.206;2022-08-21T09:44:46;29.90;41.50
32394;DHT22;18853;45.426;9.206;2022-08-21T09:47:12;30.00;41.70
32394;DHT22;18853;45.426;9.206;2022-08-21T09:49:39;30.10;41.60
32394;DHT22;18853;45.426;9.206;2022-08-21T09:52:10;30.10;41.80
32394;DHT22;18853;45.426;9.206;2022-08-21T09:54:39;30.20;41.70
32394;DHT22;18853;45.426;9.206;2022-08-21T09:59:52;30.20;40.90
32394;DHT22;18853;45.426;9.206;2022-08-21T10:02:31;30.30;40.60
32394;DHT22;18853;45.426;9.206;2022-08-21T10:05:01;30.30;40.60
32394;DHT22;18853;45.426;9.206;2022-08-21T10:07:28;30.30;40.20
32394;DHT22;18853;45.426;9.206;2022-08-21T10:10:05;30.30;40.20
32394;DHT22;18853;45.426;9.206;2022-08-21T10:12:33;30.30;40.40
32394;DHT22;18853;45.426;9.206;2022-08-21T10:17:37;30.50;39.90
32394;DHT22;18853;45.426;9.206;2022-08-21T10:20:14;30.40;39.90
32394;DHT22;18853;45.426;9.206;2022-08-21T10:30:15;30.60;39.40
32394;DHT22;18853;45.426;9.206;2022-08-21T10:32:46;30.60;38.80
32394;DHT22;18853;45.426;9.206;2022-08-21T10:35:24;30.70;38.70
32394;DHT22;18853;45.426;9.206;2022-08-21T10:43:24;30.80;38.20
32394;DHT22;18853;45.426;9.206;2022-08-21T10:48:29;30.90;39.40
32394;DHT22;18853;45.426;9.206;2022-08-21T10:51:12;30.80;39.60
32394;DHT22;18853;45.426;9.206;2022-08-21T10:53:50;30.90;38.50
32394;DHT22;18853;45.426;9.206;2022-08-21T10:56:40;30.90;38.30
32394;DHT22;18853;45.426;9.206;2022-08-21T11:01:34;30.90;37.20
32394;DHT22;18853;45.426;9.206;2022-08-21T11:06:45;31.00;37.40
32394;DHT22;18853;45.426;9.206;2022-08-21T11:09:16;31.10;37.00
32394;DHT22;18853;45.426;9.206;2022-08-21T11:16:46;31.10;37.70
32394;DHT22;18853;45.426;9.206;2022-08-21T11:26:44;31.20;37.00
32394;DHT22;18853;45.426;9.206;2022-08-21T11:29:16;31.20;36.30
32394;DHT22;18853;45.426;9.206;2022-08-21T11:31:51;31.20;36.30
32394;DHT22;18853;45.426;9.206;2022-08-21T11:39:41;31.40;36.40
32394;DHT22;18853;45.426;9.206;2022-08-21T11:44:42;31.50;35.60
32394;DHT22;18853;45.426;9.206;2022-08-21T11:47:15;31.60;35.80
32394;DHT22;18853;45.426;9.206;2022-08-21T11:49:46;31.70;34.40
32394;DHT22;18853;45.426;9.206;2022-08-21T11:52:16;31.70;34.40
32394;DHT22;18853;45.426;9.206;2022-08-21T12:00:04;32.10;34.70
32394;DHT22;18853;45.426;9.206;2022-08-21T12:02:34;32.10;34.50
32394;DHT22;18853;45.426;9.206;2022-08-21T12:05:05;32.20;33.80
32394;DHT22;18853;45.426;9.206;2022-08-21T12:10:04;32.30;33.20
32394;DHT22;18853;45.426;9.206;2022-08-21T12:12:32;32.30;32.70
32394;DHT22;18853;45.426;9.206;2022-08-21T12:22:49;32.60;32.70
32394;DHT22;18853;45.426;9.206;2022-08-21T12:25:18;32.70;33.20
32394;DHT22;18853;45.426;9.206;2022-08-21T12:27:53;32.80;32.20
32394;DHT22;18853;45.426;9.206;2022-08-21T12:32:56;32.90;32.40
32394;DHT22;18853;45.426;9.206;2022-08-21T12:35:25;33.00;32.30
32394;DHT22;18853;45.426;9.206;2022-08-21T12:40:23;33.20;31.60
32394;DHT22;18853;45.426;9.206;2022-08-21T12:42:51;33.20;31.20
32394;DHT22;18853;45.426;9.206;2022-08-21T12:47:56;33.30;30.50
32394;DHT22;18853;45.426;9.206;2022-08-21T12:50:35;33.30;30.10
32394;DHT22;18853;45.426;9.206;2022-08-21T12:53:06;33.50;30.40
32394;DHT22;18853;45.426;9.206;2022-08-21T12:55:33;33.50;30.20
32394;DHT22;18853;45.426;9.206;2022-08-21T12:57:59;33.60;29.90
32394;DHT22;18853;45.426;9.206;2022-08-21T13:00:26;33.60;29.60
32394;DHT22;18853;45.426;9.206;2022-08-21T13:02:53;33.70;30.30
32394;DHT22;18853;45.426;9.206;2022-08-21T13:05:32;33.70;30.00
32394;DHT22;18853;45.426;9.206;2022-08-21T13:07:58;33.70;30.50
32394;DHT22;18853;45.426;9.206;2022-08-21T13:10:29;33.80;29.80
32394;DHT22;18853;45.426;9.206;2022-08-21T13:13:05;33.80;29.80
32394;DHT22;18853;45.426;9.206;2022-08-21T13:15:33;33.80;29.60
32394;DHT22;18853;45.426;9.206;2022-08-21T13:17:59;33.80;29.30
32394;DHT22;18853;45.426;9.206;2022-08-21T13:20:31;33.90;28.70
32394;DHT22;18853;45.426;9.206;2022-08-21T13:22:57;34.00;29.10
32394;DHT22;18853;45.426;9.206;2022-08-21T13:25:28;34.10;28.70
32394;DHT22;18853;45.426;9.206;2022-08-21T13:27:58;34.10;28.70
32394;DHT22;18853;45.426;9.206;2022-08-21T13:30:24;34.10;28.60
32394;DHT22;18853;45.426;9.206;2022-08-21T13:32:51;34.20;27.70
32394;DHT22;18853;45.426;9.206;2022-08-21T13:35:21;34.30;28.80
32394;DHT22;18853;45.426;9.206;2022-08-21T13:37:47;34.40;28.30
32394;DHT22;18853;45.426;9.206;2022-08-21T13:40:20;34.50;28.40
32394;DHT22;18853;45.426;9.206;2022-08-21T13:42:48;34.60;28.80
32394;DHT22;18853;45.426;9.206;2022-08-21T13:45:15;34.70;27.50
32394;DHT22;18853;45.426;9.206;2022-08-21T13:47:41;34.80;28.40
32394;DHT22;18853;45.426;9.206;2022-08-21T13:50:07;34.90;27.90
32394;DHT22;18853;45.426;9.206;2022-08-21T13:52:32;34.90;27.40
32394;DHT22;18853;45.426;9.206;2022-08-21T13:54:59;35.00;28.30
32394;DHT22;18853;45.426;9.206;2022-08-21T13:59:51;35.10;27.20
32394;DHT22;18853;45.426;9.206;2022-08-21T14:02:23;35.20;26.70
32394;DHT22;18853;45.426;9.206;2022-08-21T14:07:24;35.40;26.80
32394;DHT22;18853;45.426;9.206;2022-08-21T14:09:51;35.50;27.30
32394;DHT22;18853;45.426;9.206;2022-08-21T14:14:43;35.50;26.90
32394;DHT22;18853;45.426;9.206;2022-08-21T14:17:10;35.60;26.90
32394;DHT22;18853;45.426;9.206;2022-08-21T14:19:39;35.60;26.50
32394;DHT22;18853;45.426;9.206;2022-08-21T14:24:49;35.80;27.00
32394;DHT22;18853;45.426;9.206;2022-08-21T14:27:16;35.80;26.40
32394;DHT22;18853;45.426;9.206;2022-08-21T14:29:42;36.00;26.00
32394;DHT22;18853;45.426;9.206;2022-08-21T14:32:10;36.00;25.90
32394;DHT22;18853;45.426;9.206;2022-08-21T14:34:36;36.10;26.20
32394;DHT22;18853;45.426;9.206;2022-08-21T14:37:01;36.10;26.40
32394;DHT22;18853;45.426;9.206;2022-08-21T14:39:27;36.20;26.30
32394;DHT22;18853;45.426;9.206;2022-08-21T14:41:52;36.30;27.20
32394;DHT22;18853;45.426;9.206;2022-08-21T14:44:19;36.20;26.90
32394;DHT22;18853;45.426;9.206;2022-08-21T14:46:44;36.20;26.00
32394;DHT22;18853;45.426;9.206;2022-08-21T14:49:10;36.30;25.60
32394;DHT22;18853;45.426;9.206;2022-08-21T14:51:36;36.40;25.40
32394;DHT22;18853;45.426;9.206;2022-08-21T14:54:04;36.50;25.70
32394;DHT22;18853;45.426;9.206;2022-08-21T14:56:29;36.60;25.10
32394;DHT22;18853;45.426;9.206;2022-08-21T14:58:55;36.80;25.50
32394;DHT22;18853;45.426;9.206;2022-08-21T15:01:24;36.80;26.00
32394;DHT22;18853;45.426;9.206;2022-08-21T15:03:49;36.80;25.90
32394;DHT22;18853;45.426;9.206;2022-08-21T15:06:15;36.80;25.20
32394;DHT22;18853;45.426;9.206;2022-08-21T15:08:42;36.80;24.90
32394;DHT22;18853;45.426;9.206;2022-08-21T15:11:08;36.90;25.20
32394;DHT22;18853;45.426;9.206;2022-08-21T15:13:36;37.00;24.90
32394;DHT22;18853;45.426;9.206;2022-08-21T15:16:02;37.00;25.20
32394;DHT22;18853;45.426;9.206;2022-08-21T15:18:28;37.10;25.70
32394;DHT22;18853;45.426;9.206;2022-08-21T15:20:54;37.10;26.80
32394;DHT22;18853;45.426;9.206;2022-08-21T15:23:19;36.90;26.10
32394;DHT22;18853;45.426;9.206;2022-08-21T15:25:46;37.00;26.60
32394;DHT22;18853;45.426;9.206;2022-08-21T15:28:12;37.00;26.30
32394;DHT22;18853;45.426;9.206;2022-08-21T15:30:42;37.10;25.90
32394;DHT22;18853;45.426;9.206;2022-08-21T15:33:07;37.20;25.90
32394;DHT22;18853;45.426;9.206;2022-08-21T15:35:33;37.20;26.00
32394;DHT22;18853;45.426;9.206;2022-08-21T15:37:59;37.40;26.10
32394;DHT22;18853;45.426;9.206;2022-08-21T15:40:24;37.40;26.00
32394;DHT22;18853;45.426;9.206;2022-08-21T15:42:51;37.40;25.50
32394;DHT22;18853;45.426;9.206;2022-08-21T15:45:18;37.30;25.70
32394;DHT22;18853;45.426;9.206;2022-08-21T15:47:44;37.40;25.20
32394;DHT22;18853;45.426;9.206;2022-08-21T15:50:10;37.40;25.60
32394;DHT22;18853;45.426;9.206;2022-08-21T15:52:36;37.40;25.60
32394;DHT22;18853;45.426;9.206;2022-08-21T15:55:03;37.50;25.40
32394;DHT22;18853;45.426;9.206;2022-08-21T15:57:28;37.70;25.20
32394;DHT22;18853;45.426;9.206;2022-08-21T15:59:56;37.80;25.50
32394;DHT22;18853;45.426;9.206;2022-08-21T16:02:26;37.90;25.70
32394;DHT22;18853;45.426;9.206;2022-08-21T16:04:52;38.00;25.70
32394;DHT22;18853;45.426;9.206;2022-08-21T16:07:17;38.10;25.70
32394;DHT22;18853;45.426;9.206;2022-08-21T16:09:43;38.10;25.50
32394;DHT22;18853;45.426;9.206;2022-08-21T16:12:10;38.10;25.80
32394;DHT22;18853;45.426;9.206;2022-08-21T16:14:36;38.10;25.10
32394;DHT22;18853;45.426;9.206;2022-08-21T16:17:05;38.20;25.60
32394;DHT22;18853;45.426;9.206;2022-08-21T16:19:31;38.30;25.80
32394;DHT22;18853;45.426;9.206;2022-08-21T16:21:57;38.30;25.80
32394;DHT22;18853;45.426;9.206;2022-08-21T16:24:22;38.40;25.90
32394;DHT22;18853;45.426;9.206;2022-08-21T16:26:48;38.40;25.70
32394;DHT22;18853;45.426;9.206;2022-08-21T16:29:14;38.40;25.70
32394;DHT22;18853;45.426;9.206;2022-08-21T16:31:40;38.40;25.20
32394;DHT22;18853;45.426;9.206;2022-08-21T16:34:05;38.50;25.10
32394;DHT22;18853;45.426;9.206;2022-08-21T16:36:31;38.50;25.20
32394;DHT22;18853;45.426;9.206;2022-08-21T16:38:56;38.60;24.90
32394;DHT22;18853;45.426;9.206;2022-08-21T16:41:23;38.60;24.80
32394;DHT22;18853;45.426;9.206;2022-08-21T16:43:50;38.60;24.90
32394;DHT22;18853;45.426;9.206;2022-08-21T16:46:16;38.60;24.70
32394;DHT22;18853;45.426;9.206;2022-08-21T16:48:42;38.70;24.40
32394;DHT22;18853;45.426;9.206;2022-08-21T16:51:12;38.60;24.80
32394;DHT22;18853;45.426;9.206;2022-08-21T16:53:38;38.60;24.60
32394;DHT22;18853;45.426;9.206;2022-08-21T16:56:04;38.60;25.20
32394;DHT22;18853;45.426;9.206;2022-08-21T16:58:31;38.60;24.40
32394;DHT22;18853;45.426;9.206;2022-08-21T17:00:57;38.50;24.70
32394;DHT22;18853;45.426;9.206;2022-08-21T17:03:30;38.50;25.00
32394;DHT22;18853;45.426;9.206;2022-08-21T17:05:56;38.40;25.20
32394;DHT22;18853;45.426;9.206;2022-08-21T17:08:22;38.40;25.60
32394;DHT22;18853;45.426;9.206;2022-08-21T17:10:48;38.40;25.20